createdAt,value
2017-07-04T00:00:46.475Z,52.61
2017-07-04T00:01:46.513Z,53.09
2017-07-04T00:02:46.554Z,53.19
2017-07-04T00:03:46.591Z,52.99
2017-07-04T00:04:46.632Z,52.89
2017-07-04T00:05:46.676Z,52.99
2017-07-04T00:06:46.715Z,53.09
2017-07-04T00:07:46.750Z,53.66
2017-07-04T00:08:47.107Z,53.76
2017-07-04T00:09:46.833Z,53.38
2017-07-04T00:10:46.871Z,52.99
2017-07-04T00:11:46.915Z,53.28
2017-07-04T00:12:46.953Z,53.86
2017-07-04T00:13:46.992Z,53.66
2017-07-04T00:14:47.037Z,53.66
2017-07-04T00:15:47.072Z,53.86
2017-07-04T00:16:47.116Z,53.66
2017-07-04T00:17:47.153Z,53.57
2017-07-04T00:18:47.194Z,53.38
2017-07-04T00:19:47.236Z,53.38
2017-07-04T00:20:47.276Z,53.09
2017-07-04T00:21:47.316Z,53.19
2017-07-04T00:22:47.354Z,53.57
2017-07-04T00:23:47.708Z,53.76
2017-07-04T00:24:47.434Z,53.64
2017-07-04T00:25:47.477Z,53.76
2017-07-04T00:26:47.516Z,53.66
2017-07-04T00:27:47.557Z,53.66
2017-07-04T00:28:47.596Z,54.02
2017-07-04T00:29:47.636Z,54.12
2017-07-04T00:30:47.672Z,54.31
2017-07-04T00:31:47.717Z,54.31
2017-07-04T00:32:47.785Z,54.22
2017-07-04T00:33:47.798Z,54.02
2017-07-04T00:34:47.835Z,54.22
2017-07-04T00:35:47.875Z,54.22
2017-07-04T00:36:47.917Z,53.83
2017-07-04T00:37:47.953Z,54.31
2017-07-04T00:38:47.996Z,54.22
2017-07-04T00:39:48.035Z,54.22
2017-07-04T00:40:48.076Z,54.31
2017-07-04T00:41:48.112Z,54.5
2017-07-04T00:42:48.157Z,54.12
2017-07-04T00:43:48.193Z,54.31
2017-07-04T00:44:48.236Z,54.12
2017-07-04T00:45:48.276Z,54.69
2017-07-04T00:46:48.315Z,54.6
2017-07-04T00:47:48.357Z,54.5
2017-07-04T00:48:48.395Z,54.69
2017-07-04T00:49:48.435Z,54.69
2017-07-04T00:50:48.473Z,54.69
2017-07-04T00:51:48.525Z,54.99
2017-07-04T00:52:48.553Z,54.89
2017-07-04T00:53:48.597Z,54.41
2017-07-04T00:54:48.948Z,54.99
2017-07-04T00:55:48.673Z,54.99
2017-07-04T00:56:48.717Z,54.69
2017-07-04T00:57:48.754Z,54.89
2017-07-04T00:58:48.793Z,54.79
2017-07-04T00:59:48.836Z,54.79
2017-07-04T01:00:48.874Z,55.18
2017-07-04T01:01:48.916Z,55.27
2017-07-04T01:02:48.954Z,55.27
2017-07-04T01:03:48.994Z,54.89
2017-07-04T01:04:49.039Z,54.89
2017-07-04T01:05:49.074Z,54.79
2017-07-04T01:06:49.112Z,54.99
2017-07-04T01:07:49.157Z,54.99
2017-07-04T01:08:49.195Z,54.99
2017-07-04T01:09:49.232Z,54.99
2017-07-04T01:10:49.273Z,55.27
2017-07-04T01:11:49.319Z,55.08
2017-07-04T01:12:49.354Z,55.08
2017-07-04T01:13:49.393Z,54.99
2017-07-04T01:14:49.434Z,55.27
2017-07-04T01:15:49.470Z,55.27
2017-07-04T01:16:49.514Z,54.41
2017-07-04T01:17:49.554Z,55.27
2017-07-04T01:18:49.593Z,55.37
2017-07-04T01:19:49.629Z,55.08
2017-07-04T01:20:49.683Z,54.99
2017-07-04T01:21:49.713Z,54.99
2017-07-04T01:22:49.755Z,55.08
2017-07-04T01:23:49.790Z,54.89
2017-07-04T01:24:49.830Z,55.08
2017-07-04T01:25:49.872Z,55.27
2017-07-04T01:26:49.910Z,54.69
2017-07-04T01:27:49.952Z,55.15
2017-07-04T01:28:49.992Z,55.15
2017-07-04T01:29:50.031Z,55.08
2017-07-04T01:30:50.071Z,55.37
2017-07-04T01:31:50.112Z,55.27
2017-07-04T01:32:50.149Z,55.85
2017-07-04T01:33:50.192Z,55.85
2017-07-04T01:34:50.228Z,55.56
2017-07-04T01:35:50.270Z,55.76
2017-07-04T01:36:50.311Z,55.76
2017-07-04T01:37:50.350Z,55.66
2017-07-04T01:38:50.389Z,55.76
2017-07-04T01:39:50.427Z,55.08
2017-07-04T01:40:50.470Z,55.44
2017-07-04T01:41:50.510Z,55.56
2017-07-04T01:42:50.547Z,55.37
2017-07-04T01:43:50.906Z,55.37
2017-07-04T01:44:50.630Z,55.82
2017-07-04T01:45:50.667Z,55.85
2017-07-04T01:46:50.706Z,55.73
2017-07-04T01:47:50.747Z,55.76
2017-07-04T01:48:50.789Z,56.14
2017-07-04T01:49:50.824Z,56.04
2017-07-04T01:50:50.869Z,55.85
2017-07-04T01:51:50.905Z,55.94
2017-07-04T01:52:50.950Z,55.91
2017-07-04T01:53:50.988Z,55.73
2017-07-04T01:54:51.027Z,55.53
2017-07-04T01:55:51.068Z,55.63
2017-07-04T01:56:51.105Z,55.73
2017-07-04T01:57:51.147Z,55.46
2017-07-04T01:58:51.184Z,55.53
2017-07-04T01:59:51.228Z,55.76
2017-07-04T02:00:51.264Z,55.53
2017-07-04T02:01:51.306Z,55.82
2017-07-04T02:02:51.346Z,55.44
2017-07-04T02:03:51.383Z,55.82
2017-07-04T02:04:51.423Z,55.34
2017-07-04T02:05:51.464Z,55.91
2017-07-04T02:06:51.505Z,55.91
2017-07-04T02:07:51.544Z,56.11
2017-07-04T02:08:51.583Z,56.01
2017-07-04T02:09:51.628Z,55.73
2017-07-04T02:10:51.663Z,55.53
2017-07-04T02:11:51.702Z,55.82
2017-07-04T02:12:51.743Z,55.91
2017-07-04T02:13:51.782Z,55.91
2017-07-04T02:14:51.820Z,55.82
2017-07-04T02:15:51.863Z,55.73
2017-07-04T02:16:51.903Z,55.63
2017-07-04T02:17:51.940Z,55.73
2017-07-04T02:18:51.981Z,55.53
2017-07-04T02:19:52.020Z,55.73
2017-07-04T02:20:52.060Z,55.73
2017-07-04T02:21:52.097Z,55.73
2017-07-04T02:22:52.139Z,56.11
2017-07-04T02:23:52.177Z,55.73
2017-07-04T02:24:52.218Z,56.21
2017-07-04T02:25:52.256Z,56.01
2017-07-04T02:26:52.298Z,56.01
2017-07-04T02:27:52.338Z,56.11
2017-07-04T02:28:52.379Z,55.91
2017-07-04T02:29:52.415Z,56.21
2017-07-04T02:30:52.459Z,56.11
2017-07-04T02:31:52.499Z,56.21
2017-07-04T02:32:52.541Z,56.59
2017-07-04T02:33:52.575Z,56.49
2017-07-04T02:34:52.617Z,56.49
2017-07-04T02:35:52.655Z,56.49
2017-07-04T02:36:52.694Z,56.21
2017-07-04T02:37:52.736Z,56.88
2017-07-04T02:38:52.773Z,56.78
2017-07-04T02:39:52.818Z,56.4
2017-07-04T02:40:52.853Z,57.17
2017-07-04T02:41:52.894Z,56.59
2017-07-04T02:42:52.935Z,56.59
2017-07-04T02:43:52.971Z,57.07
2017-07-04T02:44:53.012Z,56.88
2017-07-04T02:45:53.053Z,56.98
2017-07-04T02:46:53.094Z,56.98
2017-07-04T02:47:53.130Z,56.98
2017-07-04T02:48:53.169Z,56.78
2017-07-04T02:49:53.210Z,57.17
2017-07-04T02:50:53.251Z,57.33
2017-07-04T02:51:53.295Z,57.65
2017-07-04T02:52:53.329Z,57.43
2017-07-04T02:53:53.380Z,57.62
2017-07-04T02:54:53.409Z,57.62
2017-07-04T02:55:53.458Z,57.81
2017-07-04T02:56:53.492Z,57.52
2017-07-04T02:57:53.530Z,58
2017-07-04T02:58:53.566Z,57.81
2017-07-04T02:59:53.610Z,57.43
2017-07-04T03:00:53.647Z,57.33
2017-07-04T03:01:53.687Z,57.75
2017-07-04T03:02:53.729Z,57.45
2017-07-04T03:03:53.767Z,57.62
2017-07-04T03:04:53.804Z,57.62
2017-07-04T03:05:53.844Z,57.81
2017-07-04T03:06:53.887Z,57.93
2017-07-04T03:07:53.926Z,57.93
2017-07-04T03:08:53.973Z,58.51
2017-07-04T03:09:54.002Z,58.13
2017-07-04T03:10:54.044Z,58.58
2017-07-04T03:11:54.081Z,57.62
2017-07-04T03:12:54.123Z,57.9
2017-07-04T03:13:54.164Z,58
2017-07-04T03:14:54.202Z,58.29
2017-07-04T03:15:54.241Z,58.22
2017-07-04T03:16:54.278Z,58.2
2017-07-04T03:17:54.323Z,58
2017-07-04T03:18:54.363Z,58.77
2017-07-04T03:19:54.401Z,58.77
2017-07-04T03:20:54.438Z,58.87
2017-07-04T03:21:54.480Z,58.48
2017-07-04T03:22:54.518Z,58.61
2017-07-04T03:23:54.556Z,58.58
2017-07-04T03:24:54.595Z,59.16
2017-07-04T03:25:54.636Z,58.58
2017-07-04T03:26:54.679Z,58.99
2017-07-04T03:27:54.714Z,59.44
2017-07-04T03:28:54.755Z,59.25
2017-07-04T03:29:54.797Z,59.83
2017-07-04T03:30:54.834Z,59.73
2017-07-04T03:31:54.873Z,59.83
2017-07-04T03:32:54.913Z,60.11
2017-07-04T03:33:54.956Z,60.69
2017-07-04T03:34:54.992Z,60.6
2017-07-04T03:35:55.033Z,60.78
2017-07-04T03:36:55.074Z,60.98
2017-07-04T03:37:55.111Z,61.27
2017-07-04T03:38:55.152Z,60.88
2017-07-04T03:39:55.192Z,61.55
2017-07-04T03:40:55.230Z,61.46
2017-07-04T03:41:55.273Z,61.65
2017-07-04T03:42:55.311Z,61.84
2017-07-04T03:43:55.351Z,61.84
2017-07-04T03:44:55.391Z,62.42
2017-07-04T03:45:55.561Z,62.23
2017-07-04T03:46:55.466Z,62.23
2017-07-04T03:47:55.507Z,62.61
2017-07-04T03:48:55.548Z,63.09
2017-07-04T03:49:55.584Z,63.19
2017-07-04T03:50:55.626Z,63.28
2017-07-04T03:51:55.664Z,63.19
2017-07-04T03:52:55.706Z,63.28
2017-07-04T03:53:55.743Z,63.54
2017-07-04T03:54:55.785Z,63.67
2017-07-04T03:55:55.822Z,63.67
2017-07-04T03:56:55.866Z,63.83
2017-07-04T03:57:55.902Z,63.45
2017-07-04T03:58:55.942Z,64.25
2017-07-04T03:59:55.982Z,64.25
2017-07-04T04:00:56.023Z,64.12
2017-07-04T04:01:56.058Z,63.96
2017-07-04T04:02:56.102Z,64.05
2017-07-04T04:03:56.142Z,64.25
2017-07-04T04:04:56.179Z,64.34
2017-07-04T04:05:56.226Z,64.31
2017-07-04T04:06:56.259Z,64.72
2017-07-04T04:07:56.301Z,64.53
2017-07-04T04:08:56.337Z,64.63
2017-07-04T04:09:56.378Z,64.92
2017-07-04T04:10:56.416Z,65.01
2017-07-04T04:11:56.454Z,65.11
2017-07-04T04:12:56.496Z,65.11
2017-07-04T04:13:56.536Z,65.3
2017-07-04T04:14:56.573Z,64.92
2017-07-04T04:15:56.612Z,64.82
2017-07-04T04:16:56.654Z,65.59
2017-07-04T04:17:56.693Z,65.59
2017-07-04T04:18:56.731Z,65.27
2017-07-04T04:19:56.770Z,65.36
2017-07-04T04:20:56.811Z,65.69
2017-07-04T04:21:56.849Z,65.69
2017-07-04T04:22:56.893Z,65.4
2017-07-04T04:23:56.929Z,65.27
2017-07-04T04:24:56.969Z,65.94
2017-07-04T04:25:57.007Z,65.97
2017-07-04T04:26:57.049Z,65.88
2017-07-04T04:27:57.088Z,65.84
2017-07-04T04:28:57.126Z,66.07
2017-07-04T04:29:57.169Z,65.84
2017-07-04T04:30:57.208Z,66.36
2017-07-04T04:31:57.245Z,66.46
2017-07-04T04:32:57.286Z,66.16
2017-07-04T04:33:57.323Z,66.36
2017-07-04T04:34:57.365Z,66.46
2017-07-04T04:35:57.405Z,65.97
2017-07-04T04:36:57.445Z,66.26
2017-07-04T04:37:57.482Z,66.64
2017-07-04T04:38:57.524Z,66.64
2017-07-04T04:39:57.561Z,66.64
2017-07-04T04:40:57.603Z,66.74
2017-07-04T04:41:57.641Z,66.74
2017-07-04T04:42:57.681Z,66.84
2017-07-04T04:43:57.722Z,66.46
2017-07-04T04:44:57.761Z,66.93
2017-07-04T04:45:57.800Z,66.46
2017-07-04T04:46:57.840Z,66.84
2017-07-04T04:47:57.881Z,66.58
2017-07-04T04:48:57.921Z,66.87
2017-07-04T04:49:57.958Z,66.77
2017-07-04T04:50:58.000Z,66.3
2017-07-04T04:51:58.039Z,66.1
2017-07-04T04:52:58.081Z,66.1
2017-07-04T04:53:58.117Z,66.3
2017-07-04T04:54:58.159Z,66.3
2017-07-04T04:55:58.199Z,66.49
2017-07-04T04:56:58.236Z,66.49
2017-07-04T04:57:58.278Z,66.2
2017-07-04T04:58:58.316Z,66.39
2017-07-04T04:59:58.357Z,66.49
2017-07-04T05:00:58.398Z,66.1
2017-07-04T05:01:58.439Z,66.3
2017-07-04T05:02:58.636Z,66.2
2017-07-04T05:03:58.515Z,66.36
2017-07-04T05:04:58.560Z,66.77
2017-07-04T05:05:58.598Z,66.84
2017-07-04T05:06:58.637Z,66.84
2017-07-04T05:07:58.673Z,66.68
2017-07-04T05:08:58.715Z,66.64
2017-07-04T05:09:58.755Z,66.74
2017-07-04T05:10:58.795Z,66.87
2017-07-04T05:11:58.835Z,67.13
2017-07-04T05:12:58.877Z,66.84
2017-07-04T05:13:58.911Z,66.64
2017-07-04T05:14:58.955Z,66.93
2017-07-04T05:15:58.993Z,67.03
2017-07-04T05:16:59.033Z,66.36
2017-07-04T05:17:59.074Z,66.55
2017-07-04T05:18:59.116Z,66.55
2017-07-04T05:19:59.153Z,67.13
2017-07-04T05:20:59.191Z,67.13
2017-07-04T05:21:59.240Z,66.93
2017-07-04T05:22:59.271Z,66.93
2017-07-04T05:23:59.313Z,67.03
2017-07-04T05:24:59.350Z,67.03
2017-07-04T05:25:59.391Z,66.93
2017-07-04T05:26:59.431Z,67.41
2017-07-04T05:27:59.471Z,67.13
2017-07-04T05:28:59.511Z,67.32
2017-07-04T05:29:59.551Z,67.51
2017-07-04T05:30:59.589Z,67.22
2017-07-04T05:31:59.637Z,67.41
2017-07-04T05:32:59.669Z,67.8
2017-07-04T05:33:59.708Z,67.7
2017-07-04T05:34:59.748Z,67.8
2017-07-04T05:35:59.788Z,68.28
2017-07-04T05:36:59.830Z,67.9
2017-07-04T05:37:59.870Z,68.12
2017-07-04T05:38:59.910Z,68.08
2017-07-04T05:39:59.946Z,68.18
2017-07-04T05:40:59.988Z,67.93
2017-07-04T05:42:00.028Z,67.54
2017-07-04T05:43:00.064Z,67.64
2017-07-04T05:44:00.427Z,67.83
2017-07-04T05:45:00.145Z,67.83
2017-07-04T05:46:00.185Z,67.83
2017-07-04T05:47:00.228Z,68.12
2017-07-04T05:48:00.270Z,68.12
2017-07-04T05:49:00.305Z,68.02
2017-07-04T05:50:00.354Z,67.74
2017-07-04T05:51:00.387Z,67.93
2017-07-04T05:52:00.429Z,68.02
2017-07-04T05:53:00.467Z,68.15
2017-07-04T05:54:00.504Z,68.35
2017-07-04T05:55:00.549Z,70.78
2017-07-04T05:56:00.586Z,71.49
2017-07-04T05:57:00.628Z,68.9
2017-07-04T05:58:00.668Z,67.33
2017-07-04T05:59:00.713Z,66.14
2017-07-04T06:00:00.753Z,63.98
2017-07-04T06:01:00.797Z,61.95
2017-07-04T06:02:00.933Z,58.88
2017-07-04T06:03:00.883Z,57.81
2017-07-04T06:04:00.929Z,58.01
2017-07-04T06:05:01.073Z,57.07
2017-07-04T06:06:01.012Z,56.77
2017-07-04T06:07:01.057Z,56.49
2017-07-04T06:08:01.099Z,56.77
2017-07-04T06:09:01.141Z,56.13
2017-07-04T06:10:01.186Z,55.11
2017-07-04T06:11:01.234Z,53.42
2017-07-04T06:12:01.347Z,52.69
2017-07-04T06:13:01.324Z,51.02
2017-07-04T06:14:01.369Z,48.73
2017-07-04T06:15:01.416Z,47.53
2017-07-04T06:16:01.466Z,45.04
2017-07-04T06:17:01.513Z,43.62
2017-07-04T06:18:01.561Z,41.7
2017-07-04T06:19:01.618Z,39.56
2017-07-04T06:20:01.658Z,39.27
2017-07-04T06:21:01.704Z,38.47
2017-07-04T06:22:01.755Z,37.47
2017-07-04T06:23:01.802Z,38.01
2017-07-04T06:24:01.848Z,37.96
2017-07-04T06:25:01.896Z,38.1
2017-07-04T06:26:01.945Z,38.56
2017-07-04T06:27:01.992Z,39
2017-07-04T06:28:02.037Z,39.55
2017-07-04T06:29:02.084Z,39.72
2017-07-04T06:30:02.129Z,39.8
2017-07-04T06:31:02.174Z,40.85
2017-07-04T06:32:02.219Z,40.75
2017-07-04T06:33:02.269Z,40.85
2017-07-04T06:34:02.313Z,40.17
2017-07-04T06:35:02.360Z,40.17
2017-07-04T06:36:02.404Z,40.85
2017-07-04T06:37:02.452Z,40.54
2017-07-04T06:38:02.492Z,40.83
2017-07-04T06:39:02.540Z,41.12
2017-07-04T06:40:02.586Z,41.49
2017-07-04T06:41:02.629Z,41.3
2017-07-04T06:42:02.677Z,41.68
2017-07-04T06:43:02.722Z,42.05
2017-07-04T06:44:02.776Z,41.93
2017-07-04T06:45:02.808Z,42.41
2017-07-04T06:46:02.854Z,42.61
2017-07-04T06:47:02.901Z,42.61
2017-07-04T06:48:02.943Z,42.78
2017-07-04T06:49:02.988Z,43.27
2017-07-04T06:50:03.031Z,43.24
2017-07-04T06:51:03.078Z,43.44
2017-07-04T06:52:03.120Z,43.8
2017-07-04T06:53:03.161Z,44.19
2017-07-04T06:54:03.208Z,44.29
2017-07-04T06:55:03.253Z,44.57
2017-07-04T06:56:03.293Z,44.57
2017-07-04T06:57:03.339Z,45.14
2017-07-04T06:58:03.384Z,45.23
2017-07-04T06:59:03.427Z,45.72
2017-07-04T07:00:03.468Z,46.68
2017-07-04T07:01:03.516Z,46.34
2017-07-04T07:02:03.557Z,45.59
2017-07-04T07:03:03.602Z,45.32
2017-07-04T07:04:03.658Z,44.49
2017-07-04T07:05:03.692Z,44.51
2017-07-04T07:06:03.738Z,43.76
2017-07-04T07:07:03.783Z,43.51
2017-07-04T07:08:03.827Z,43.15
2017-07-04T07:09:03.874Z,42.58
2017-07-04T07:10:03.919Z,42.11
2017-07-04T07:11:03.967Z,42.14
2017-07-04T07:12:04.016Z,41.4
2017-07-04T07:13:04.059Z,40.56
2017-07-04T07:14:04.111Z,39.06
2017-07-04T07:15:04.160Z,37.83
2017-07-04T07:16:04.210Z,36.88
2017-07-04T07:17:04.254Z,35.42
2017-07-04T07:18:04.306Z,35.35
2017-07-04T07:19:04.354Z,34.2
2017-07-04T07:20:04.406Z,34.21
2017-07-04T07:21:04.455Z,33.17
2017-07-04T07:22:04.508Z,32.12
2017-07-04T07:23:04.559Z,31.23
2017-07-04T07:24:04.608Z,30.45
2017-07-04T07:25:04.661Z,30.25
2017-07-04T07:26:04.711Z,29.45
2017-07-04T07:27:04.763Z,29.62
2017-07-04T07:28:04.813Z,29.7
2017-07-04T07:29:04.865Z,29.88
2017-07-04T07:30:04.910Z,30.08
2017-07-04T07:31:04.964Z,29.1
2017-07-04T07:32:05.011Z,28.99
2017-07-04T07:33:05.061Z,29.17
2017-07-04T07:34:05.112Z,29.34
2017-07-04T07:35:05.161Z,30.2
2017-07-04T07:36:05.208Z,30.48
2017-07-04T07:37:05.262Z,30.66
2017-07-04T07:38:05.307Z,31.04
2017-07-04T07:39:05.357Z,31.2
2017-07-04T07:40:05.406Z,31.69
2017-07-04T07:41:05.454Z,31.87
2017-07-04T07:42:05.501Z,32.32
2017-07-04T07:43:05.549Z,32.79
2017-07-04T07:44:05.591Z,33.26
2017-07-04T07:45:05.641Z,33.62
2017-07-04T07:46:05.687Z,34.67
2017-07-04T07:47:05.736Z,34.46
2017-07-04T07:48:05.777Z,35.22
2017-07-04T07:49:05.829Z,35.4
2017-07-04T07:50:05.871Z,36.18
2017-07-04T07:51:05.915Z,36.35
2017-07-04T07:52:05.959Z,37.03
2017-07-04T07:53:06.005Z,37.51
2017-07-04T07:54:07.943Z,37.69
2017-07-04T07:55:06.095Z,38.37
2017-07-04T07:56:06.141Z,38.37
2017-07-04T07:57:06.183Z,38.95
2017-07-04T07:58:06.234Z,38.95
2017-07-04T07:59:06.285Z,39.04
2017-07-04T08:00:07.775Z,39.24
2017-07-04T08:01:06.361Z,39.14
2017-07-04T08:02:06.404Z,39.7
2017-07-04T08:03:06.449Z,39.51
2017-07-04T08:04:06.495Z,40.09
2017-07-04T08:05:06.539Z,41.45
2017-07-04T08:06:06.582Z,42.05
2017-07-04T08:07:06.637Z,42.09
2017-07-04T08:08:06.676Z,40.5
2017-07-04T08:09:06.719Z,39.98
2017-07-04T08:10:06.771Z,38.57
2017-07-04T08:11:06.818Z,37.25
2017-07-04T08:12:06.863Z,36.21
2017-07-04T08:13:06.912Z,34.78
2017-07-04T08:14:06.968Z,34.29
2017-07-04T08:15:07.011Z,33.9
2017-07-04T08:16:07.055Z,33.5
2017-07-04T08:17:07.105Z,33.38
2017-07-04T08:18:07.151Z,34.12
2017-07-04T08:19:07.210Z,34.11
2017-07-04T08:20:07.246Z,34.19
2017-07-04T08:21:07.292Z,34.25
2017-07-04T08:22:07.339Z,34.52
2017-07-04T08:23:07.384Z,34.88
2017-07-04T08:24:07.430Z,34.97
2017-07-04T08:25:07.475Z,35.33
2017-07-04T08:26:07.528Z,36.19
2017-07-04T08:27:07.569Z,36.29
2017-07-04T08:28:07.611Z,36.18
2017-07-04T08:29:07.669Z,36.66
2017-07-04T08:30:07.703Z,36.38
2017-07-04T08:31:07.749Z,36.58
2017-07-04T08:32:07.793Z,37.24
2017-07-04T08:33:07.841Z,37.13
2017-07-04T08:34:07.885Z,37.81
2017-07-04T08:35:07.928Z,38.27
2017-07-04T08:36:07.974Z,38.64
2017-07-04T08:37:08.017Z,38.83
2017-07-04T08:38:08.063Z,39.12
2017-07-04T08:39:08.105Z,39.01
2017-07-04T08:40:08.152Z,40.38
2017-07-04T08:41:08.193Z,40.5
2017-07-04T08:42:08.240Z,40.81
2017-07-04T08:43:08.285Z,40.08
2017-07-04T08:44:08.328Z,39.43
2017-07-04T08:45:08.378Z,39.06
2017-07-04T08:46:08.430Z,39.47
2017-07-04T08:47:08.467Z,39.31
2017-07-04T08:48:08.519Z,38.07
2017-07-04T08:49:08.561Z,37.23
2017-07-04T08:50:08.610Z,36.47
2017-07-04T08:51:08.659Z,35.71
2017-07-04T08:52:08.711Z,35.49
2017-07-04T08:53:08.753Z,35.1
2017-07-04T08:54:08.800Z,34.91
2017-07-04T08:55:08.848Z,34.89
2017-07-04T08:56:08.894Z,35.08
2017-07-04T08:57:08.942Z,35.28
2017-07-04T08:58:08.993Z,35.28
2017-07-04T08:59:09.040Z,35.1
2017-07-04T09:00:09.085Z,34.61
2017-07-04T09:01:09.138Z,34.81
2017-07-04T09:02:09.183Z,34.21
2017-07-04T09:03:09.231Z,34.21
2017-07-04T09:04:09.276Z,34.69
2017-07-04T09:05:09.328Z,34.69
2017-07-04T09:06:09.376Z,34.5
2017-07-04T09:07:09.423Z,34.81
2017-07-04T09:08:09.469Z,34.22
2017-07-04T09:09:09.519Z,34.05
2017-07-04T09:10:09.567Z,33.36
2017-07-04T09:11:09.614Z,32.97
2017-07-04T09:12:11.375Z,33.25
2017-07-04T09:13:11.236Z,33.06
2017-07-04T09:14:09.761Z,32.94
2017-07-04T09:15:09.808Z,33.31
2017-07-04T09:16:09.856Z,33.49
2017-07-04T09:17:09.905Z,33.69
2017-07-04T09:18:09.955Z,33.96
2017-07-04T09:19:09.999Z,33.67
2017-07-04T09:20:10.043Z,34.37
2017-07-04T09:21:10.094Z,34.56
2017-07-04T09:22:10.141Z,34.21
2017-07-04T09:23:10.190Z,34.12
2017-07-04T09:24:10.241Z,33.75
2017-07-04T09:25:10.289Z,33.59
2017-07-04T09:26:10.338Z,32.92
2017-07-04T09:27:10.388Z,32.84
2017-07-04T09:28:10.441Z,32.37
2017-07-04T09:29:10.492Z,31.99
2017-07-04T09:30:10.548Z,31.62
2017-07-04T09:31:10.596Z,31.14
2017-07-04T09:32:10.648Z,30.67
2017-07-04T09:33:10.702Z,30.49
2017-07-04T09:34:10.756Z,29.82
2017-07-04T09:35:10.807Z,29.43
2017-07-04T09:36:10.865Z,28.93
2017-07-04T09:37:10.917Z,28.55
2017-07-04T09:38:10.966Z,27.66
2017-07-04T09:39:11.021Z,27.66
2017-07-04T09:40:11.074Z,27.45
2017-07-04T09:41:11.131Z,27.06
2017-07-04T09:42:11.185Z,26.55
2017-07-04T09:43:11.236Z,26.44
2017-07-04T09:44:11.289Z,26.92
2017-07-04T09:45:11.341Z,26.79
2017-07-04T09:46:11.395Z,27.08
2017-07-04T09:47:11.449Z,27.44
2017-07-04T09:48:11.496Z,28.29
2017-07-04T09:49:11.545Z,28.96
2017-07-04T09:50:11.598Z,29.53
2017-07-04T09:51:11.653Z,29.92
2017-07-04T09:52:11.700Z,30.22
2017-07-04T09:53:11.755Z,30.24
2017-07-04T09:54:11.804Z,30.24
2017-07-04T09:55:11.856Z,30.16
2017-07-04T09:56:11.907Z,29.59
2017-07-04T09:57:11.959Z,29.21
2017-07-04T09:58:12.012Z,29.5
2017-07-04T09:59:12.067Z,29.39
2017-07-04T10:00:12.121Z,29.3
2017-07-04T10:01:12.171Z,29.49
2017-07-04T10:02:12.227Z,29.49
2017-07-04T10:03:12.275Z,29.3
2017-07-04T10:04:12.334Z,29.49
2017-07-04T10:05:12.385Z,29.1
2017-07-04T10:06:12.437Z,29.38
2017-07-04T10:07:12.490Z,29.46
2017-07-04T10:08:12.541Z,29.36
2017-07-04T10:09:12.596Z,29.36
2017-07-04T10:10:12.663Z,29.56
2017-07-04T10:11:12.702Z,29.85
2017-07-04T10:12:12.752Z,29.66
2017-07-04T10:13:12.804Z,29.07
2017-07-04T10:14:12.857Z,28.97
2017-07-04T10:15:12.911Z,29.36
2017-07-04T10:16:12.964Z,29.36
2017-07-04T10:17:13.017Z,29.95
2017-07-04T10:18:13.070Z,29.38
2017-07-04T10:19:13.127Z,29.38
2017-07-04T10:20:13.180Z,30.16
2017-07-04T10:21:13.229Z,29.38
2017-07-04T10:22:13.287Z,29.67
2017-07-04T10:23:13.339Z,29.95
2017-07-04T10:24:13.390Z,30.24
2017-07-04T10:25:13.441Z,29.95
2017-07-04T10:26:13.496Z,29.95
2017-07-04T10:27:13.546Z,30.34
2017-07-04T10:28:13.598Z,30.05
2017-07-04T10:29:13.651Z,30.32
2017-07-04T10:30:13.700Z,30.42
2017-07-04T10:31:13.752Z,30.41
2017-07-04T10:32:13.803Z,30.7
2017-07-04T10:33:13.852Z,30.68
2017-07-04T10:34:13.903Z,31.17
2017-07-04T10:35:13.951Z,31.27
2017-07-04T10:36:13.999Z,31.35
2017-07-04T10:37:14.054Z,31.45
2017-07-04T10:38:14.103Z,31.74
2017-07-04T10:39:14.154Z,31.82
2017-07-04T10:40:14.198Z,31.82
2017-07-04T10:41:14.248Z,32.11
2017-07-04T10:42:14.297Z,32.11
2017-07-04T10:43:14.343Z,32
2017-07-04T10:44:14.389Z,32.29
2017-07-04T10:45:14.438Z,32.68
2017-07-04T10:46:14.492Z,32.49
2017-07-04T10:47:14.543Z,32.49
2017-07-04T10:48:14.589Z,32.39
2017-07-04T10:49:14.639Z,32.5
2017-07-04T10:50:14.693Z,32.5
2017-07-04T10:51:14.740Z,32.7
2017-07-04T10:52:14.791Z,32.99
2017-07-04T10:53:14.845Z,32.7
2017-07-04T10:54:14.897Z,32.7
2017-07-04T10:55:14.947Z,32.99
2017-07-04T10:56:14.999Z,33.18
2017-07-04T10:57:15.054Z,33.38
2017-07-04T10:58:15.106Z,32.5
2017-07-04T10:59:15.159Z,32.29
2017-07-04T11:00:15.210Z,32.49
2017-07-04T11:01:15.266Z,32.68
2017-07-04T11:02:15.315Z,32.68
2017-07-04T11:03:15.373Z,33.07
2017-07-04T11:04:15.425Z,33.06
2017-07-04T11:05:15.477Z,32.96
2017-07-04T11:06:15.525Z,32.96
2017-07-04T11:07:15.587Z,33.06
2017-07-04T11:08:15.630Z,33.06
2017-07-04T11:09:15.684Z,33.04
2017-07-04T11:10:15.740Z,33.33
2017-07-04T11:11:15.786Z,33.43
2017-07-04T11:12:15.837Z,33.43
2017-07-04T11:13:15.884Z,33.62
2017-07-04T11:14:15.936Z,33.51
2017-07-04T11:15:15.984Z,33.9
2017-07-04T11:16:16.036Z,33.8
2017-07-04T11:17:16.086Z,34.28
2017-07-04T11:18:16.135Z,33.99
2017-07-04T11:19:16.180Z,34.08
2017-07-04T11:20:16.227Z,34.08
2017-07-04T11:21:16.275Z,34.75
2017-07-04T11:22:16.326Z,34.46
2017-07-04T11:23:16.374Z,34.46
2017-07-04T11:24:16.417Z,34.58
2017-07-04T11:25:16.465Z,34.56
2017-07-04T11:26:16.516Z,34.75
2017-07-04T11:27:16.558Z,34.77
2017-07-04T11:28:16.606Z,34.85
2017-07-04T11:29:16.658Z,34.56
2017-07-04T11:30:16.701Z,34.66
2017-07-04T11:31:16.749Z,34.85
2017-07-04T11:32:16.795Z,34.85
2017-07-04T11:33:16.842Z,35.25
2017-07-04T11:34:16.884Z,35.16
2017-07-04T11:35:16.935Z,34.97
2017-07-04T11:36:16.979Z,35.25
2017-07-04T11:37:17.028Z,35.06
2017-07-04T11:38:17.074Z,35.25
2017-07-04T11:39:17.117Z,35.06
2017-07-04T11:40:17.164Z,35.16
2017-07-04T11:41:17.209Z,35.14
2017-07-04T11:42:17.258Z,35.43
2017-07-04T11:43:17.305Z,35.24
2017-07-04T11:44:17.353Z,35.43
2017-07-04T11:45:17.394Z,35.61
2017-07-04T11:46:17.438Z,35.9
2017-07-04T11:47:17.491Z,36.1
2017-07-04T11:48:17.539Z,36.1
2017-07-04T11:49:17.578Z,36.56
2017-07-04T11:50:17.622Z,36.18
2017-07-04T11:51:17.665Z,36.18
2017-07-04T11:52:17.714Z,36.18
2017-07-04T11:53:17.756Z,36.36
2017-07-04T11:54:17.802Z,36.27
2017-07-04T11:55:18.164Z,36.54
2017-07-04T11:56:17.890Z,36.35
2017-07-04T11:57:17.937Z,36.83
2017-07-04T11:58:17.981Z,36.64
2017-07-04T11:59:18.029Z,37.23
2017-07-04T12:00:18.072Z,37.13
2017-07-04T12:01:18.116Z,37.32
2017-07-04T12:02:18.164Z,37.61
2017-07-04T12:03:18.207Z,37.41
2017-07-04T12:04:18.257Z,37.61
2017-07-04T12:05:18.294Z,37.51
2017-07-04T12:06:18.340Z,37.15
2017-07-04T12:07:18.385Z,37.71
2017-07-04T12:08:18.430Z,37.61
2017-07-04T12:09:18.477Z,37.51
2017-07-04T12:10:18.517Z,37.81
2017-07-04T12:11:18.563Z,37.61
2017-07-04T12:12:18.611Z,38.09
2017-07-04T12:13:18.655Z,37.73
2017-07-04T12:14:18.699Z,37.92
2017-07-04T12:15:18.743Z,37.63
2017-07-04T12:16:18.787Z,38.02
2017-07-04T12:17:18.831Z,37.63
2017-07-04T12:18:18.875Z,37.82
2017-07-04T12:19:18.921Z,38.02
2017-07-04T12:20:19.280Z,38.12
2017-07-04T12:21:19.387Z,38.02
2017-07-04T12:22:19.053Z,38.12
2017-07-04T12:23:19.097Z,38.12
2017-07-04T12:24:19.569Z,37.63
2017-07-04T12:25:19.185Z,37.82
2017-07-04T12:26:19.630Z,37.63
2017-07-04T12:27:19.276Z,38.12
2017-07-04T12:28:20.234Z,37.63
2017-07-04T12:29:19.363Z,37.63
2017-07-04T12:30:20.365Z,37.51
2017-07-04T12:31:20.391Z,37.73
2017-07-04T12:32:20.433Z,38.02
2017-07-04T12:33:20.481Z,38.12
2017-07-04T12:34:20.326Z,37.92
2017-07-04T12:35:19.992Z,37.63
2017-07-04T12:36:19.677Z,38.02
2017-07-04T12:37:19.722Z,37.73
2017-07-04T12:38:19.766Z,37.82
2017-07-04T12:39:19.813Z,37.34
2017-07-04T12:40:19.852Z,36.56
2017-07-04T12:41:19.899Z,36.76
2017-07-04T12:42:19.944Z,36.83
2017-07-04T12:43:19.989Z,36.64
2017-07-04T12:44:20.031Z,36.64
2017-07-04T12:45:20.077Z,37.13
2017-07-04T12:46:20.121Z,37.32
2017-07-04T12:47:20.162Z,37.51
2017-07-04T12:48:20.205Z,37.23
2017-07-04T12:49:20.254Z,37.03
2017-07-04T12:50:20.298Z,37.13
2017-07-04T12:51:20.339Z,37.51
2017-07-04T12:52:20.387Z,37.13
2017-07-04T12:53:20.429Z,37.41
2017-07-04T12:54:20.471Z,37.71
2017-07-04T12:55:20.519Z,37.61
2017-07-04T12:56:20.562Z,37.71